createdAt,value
2023-11-18T00:01:07.676Z,0.90
2023-11-18T00:03:34.447Z,0.80
2023-11-18T00:06:01.188Z,1.70
2023-11-18T00:10:55.337Z,5.40
2023-11-18T00:13:22.757Z,0.70
2023-11-18T00:15:49.632Z,1.50
2023-11-18T00:18:16.999Z,0.90
2023-11-18T00:20:44.457Z,0.90
2023-11-18T00:23:11.240Z,0.80
2023-11-18T00:25:41.176Z,1.10
2023-11-18T00:28:10.573Z,3.10
2023-11-18T00:30:37.324Z,2.20
2023-11-18T00:33:04.405Z,1.00
2023-11-18T00:35:33.405Z,1.40
2023-11-18T00:38:00.430Z,1.70
2023-11-18T00:40:31.112Z,2.20
2023-11-18T00:42:58.384Z,3.40
2023-11-18T00:45:25.540Z,1.60
2023-11-18T00:47:52.338Z,1.20
2023-11-18T00:50:19.338Z,1.70
2023-11-18T00:52:51.138Z,2.10
2023-11-18T00:55:21.405Z,0.70
2023-11-18T00:57:48.339Z,1.10
2023-11-18T01:00:23.146Z,0.80
2023-11-18T01:02:51.379Z,1.40
2023-11-18T01:05:18.521Z,1.00
2023-11-18T01:07:45.453Z,1.60
2023-11-18T01:10:15.121Z,0.80
2023-11-18T01:12:43.100Z,0.80
2023-11-18T01:15:11.770Z,0.90
2023-11-18T01:17:39.716Z,1.60
2023-11-18T01:20:11.951Z,0.60
2023-11-18T01:22:40.599Z,1.20
2023-11-18T01:25:09.871Z,0.90
2023-11-18T01:27:36.758Z,0.70
2023-11-18T01:30:05.956Z,1.80
2023-11-18T01:32:33.195Z,1.40
2023-11-18T01:35:00.268Z,0.70
2023-11-18T01:40:16.765Z,1.10
2023-11-18T01:42:45.096Z,1.10
2023-11-18T01:45:13.226Z,0.60
2023-11-18T01:47:41.159Z,0.60
2023-11-18T01:50:10.578Z,0.70
2023-11-18T01:52:37.580Z,0.40
2023-11-18T01:55:08.093Z,1.30
2023-11-18T01:57:35.548Z,0.90
2023-11-18T02:00:07.504Z,0.80
2023-11-18T02:02:41.404Z,0.90
2023-11-18T02:05:08.880Z,0.40
2023-11-18T02:07:38.685Z,0.70
2023-11-18T02:10:10.557Z,2.00
2023-11-18T02:13:13.473Z,0.60
2023-11-18T02:15:42.101Z,0.70
2023-11-18T02:18:11.339Z,1.30
2023-11-18T02:20:39.685Z,0.50
2023-11-18T02:23:08.769Z,0.70
2023-11-18T02:25:40.486Z,0.90
2023-11-18T02:28:07.309Z,1.50
2023-11-18T02:33:06.791Z,0.90
2023-11-18T02:35:38.569Z,2.20
2023-11-18T02:38:06.540Z,1.60
2023-11-18T02:40:36.670Z,0.90
2023-11-18T02:43:06.374Z,2.50
2023-11-18T02:45:37.220Z,1.10
2023-11-18T02:48:07.823Z,1.00
2023-11-18T02:50:39.354Z,0.80
2023-11-18T02:53:06.595Z,1.70
2023-11-18T02:55:33.757Z,1.60
2023-11-18T02:58:06.559Z,0.60
2023-11-18T03:00:35.055Z,1.20
2023-11-18T03:03:01.846Z,0.50
2023-11-18T03:05:28.544Z,2.70
2023-11-18T03:10:25.170Z,0.90
2023-11-18T03:12:56.437Z,1.50
2023-11-18T03:15:24.294Z,0.80
2023-11-18T03:17:53.188Z,0.60
2023-11-18T03:20:22.034Z,0.60
2023-11-18T03:22:49.102Z,0.60
2023-11-18T03:25:16.845Z,0.80
2023-11-18T03:27:45.623Z,1.10
2023-11-18T03:30:12.764Z,0.80
2023-11-18T03:32:43.739Z,1.70
2023-11-18T03:35:11.072Z,1.30
2023-11-18T03:37:43.107Z,1.10
2023-11-18T03:40:15.472Z,0.60
2023-11-18T03:42:43.816Z,0.60
2023-11-18T03:45:11.334Z,1.10
2023-11-18T03:47:38.591Z,0.70
2023-11-18T03:50:06.834Z,0.40
2023-11-18T03:52:34.067Z,0.70
2023-11-18T03:55:00.968Z,0.80
2023-11-18T03:59:54.985Z,0.80
2023-11-18T04:02:21.811Z,1.60
2023-11-18T04:04:49.845Z,1.80
2023-11-18T04:07:16.657Z,0.80
2023-11-18T04:09:45.155Z,0.80
2023-11-18T04:12:12.038Z,1.20
2023-11-18T04:14:39.242Z,1.00
2023-11-18T04:17:07.485Z,2.10
2023-11-18T04:19:36.292Z,1.40
2023-11-18T04:22:03.169Z,1.60
2023-11-18T04:24:30.030Z,1.40
2023-11-18T04:26:56.950Z,2.00
2023-11-18T04:29:24.461Z,1.30
2023-11-18T04:31:51.843Z,1.30
2023-11-18T04:34:18.709Z,2.50
2023-11-18T04:36:45.769Z,1.50
2023-11-18T04:39:13.413Z,1.90
2023-11-18T04:41:40.909Z,1.50
2023-11-18T04:44:08.468Z,1.50
2023-11-18T04:46:37.215Z,1.70
2023-11-18T04:49:04.249Z,2.60
2023-11-18T04:51:31.212Z,1.20
2023-11-18T04:53:58.260Z,1.00
2023-11-18T04:56:25.207Z,2.90
2023-11-18T04:58:51.980Z,1.70
2023-11-18T05:01:19.648Z,1.20
2023-11-18T05:03:46.529Z,1.20
2023-11-18T05:06:13.467Z,1.50
2023-11-18T05:08:40.223Z,1.20
2023-11-18T05:11:07.237Z,0.80
2023-11-18T05:13:35.215Z,2.60
2023-11-18T05:16:02.405Z,1.90
2023-11-18T05:18:34.685Z,1.40
2023-11-18T05:21:01.852Z,1.80
2023-11-18T05:23:30.668Z,1.80
2023-11-18T05:25:57.737Z,2.30
2023-11-18T05:28:25.284Z,1.80
2023-11-18T05:30:53.419Z,1.70
2023-11-18T05:33:20.767Z,1.40
2023-11-18T05:35:50.572Z,1.90
2023-11-18T05:38:23.103Z,2.50
2023-11-18T05:40:57.705Z,5.00
2023-11-18T05:43:37.994Z,3.70
2023-11-18T05:46:25.925Z,3.10
2023-11-18T05:48:54.144Z,1.80
2023-11-18T05:51:23.240Z,1.80
2023-11-18T05:53:50.619Z,1.60
2023-11-18T05:56:18.035Z,1.60
2023-11-18T05:58:45.523Z,2.60
2023-11-18T06:01:13.909Z,2.70
2023-11-18T06:03:41.134Z,1.70
2023-11-18T06:06:11.883Z,2.00
2023-11-18T06:08:43.035Z,1.50
2023-11-18T06:11:14.481Z,2.20
2023-11-18T06:13:43.459Z,1.50
2023-11-18T06:16:18.176Z,2.40
2023-11-18T06:18:45.944Z,3.30
2023-11-18T06:21:17.430Z,3.80
2023-11-18T06:23:46.110Z,2.70
2023-11-18T06:26:13.184Z,2.50
2023-11-18T06:28:41.397Z,2.20
2023-11-18T06:31:10.232Z,2.00
2023-11-18T06:33:44.380Z,2.40
2023-11-18T06:36:14.470Z,2.40
2023-11-18T06:38:42.318Z,2.20
2023-11-18T06:41:13.584Z,4.80
2023-11-18T06:43:57.977Z,2.40
2023-11-18T06:46:41.505Z,5.60
2023-11-18T06:49:12.373Z,2.60
2023-11-18T06:51:40.077Z,4.00
2023-11-18T06:54:11.757Z,2.70
2023-11-18T06:56:46.955Z,2.00
2023-11-18T06:59:16.453Z,5.60
2023-11-18T07:01:45.886Z,3.00
2023-11-18T07:04:15.801Z,4.20
2023-11-18T07:06:44.538Z,7.30
2023-11-18T07:09:19.312Z,8.20
2023-11-18T07:11:48.662Z,4.60
2023-11-18T07:14:16.269Z,5.90
2023-11-18T07:16:44.269Z,6.10
2023-11-18T07:19:18.996Z,4.80
2023-11-18T07:21:45.753Z,6.50
2023-11-18T07:26:39.135Z,2.30
2023-11-18T07:29:09.080Z,4.00
2023-11-18T07:31:37.463Z,2.30
2023-11-18T07:34:07.118Z,3.00
2023-11-18T07:36:34.689Z,3.20
2023-11-18T07:39:04.039Z,2.60
2023-11-18T07:41:33.736Z,1.60
2023-11-18T07:44:01.716Z,1.60
2023-11-18T07:46:32.154Z,1.50
2023-11-18T07:48:59.522Z,1.30
2023-11-18T07:51:26.353Z,1.90
2023-11-18T07:53:54.344Z,3.20
2023-11-18T07:56:23.752Z,17.40
2023-11-18T07:58:53.198Z,10.20
2023-11-18T08:01:23.045Z,5.30
2023-11-18T08:03:52.648Z,6.30
2023-11-18T08:06:19.987Z,3.60
2023-11-18T08:08:49.082Z,2.50
2023-11-18T08:11:16.095Z,5.00
2023-11-18T08:13:43.304Z,2.40
2023-11-18T08:16:10.440Z,2.70
2023-11-18T08:18:38.152Z,2.30
2023-11-18T08:21:08.276Z,2.70
2023-11-18T08:23:35.710Z,3.00
2023-11-18T08:26:03.163Z,4.00
2023-11-18T08:28:30.421Z,3.70
2023-11-18T08:30:57.165Z,2.60
2023-11-18T08:33:27.215Z,2.70
2023-11-18T08:35:53.951Z,2.20
2023-11-18T08:38:21.058Z,3.60
2023-11-18T08:40:50.138Z,3.90
2023-11-18T08:43:18.057Z,2.70
2023-11-18T08:45:46.078Z,2.90
2023-11-18T08:48:13.210Z,2.40
2023-11-18T08:50:44.392Z,3.40
2023-11-18T08:53:13.297Z,4.40
2023-11-18T08:55:41.939Z,2.20
2023-11-18T08:58:22.939Z,2.60
2023-11-18T09:00:55.913Z,4.00
2023-11-18T09:03:27.315Z,12.00
2023-11-18T09:05:59.805Z,14.30
2023-11-18T09:08:28.404Z,8.40
2023-11-18T09:10:55.922Z,8.70
2023-11-18T09:13:36.530Z,8.20
2023-11-18T09:16:10.289Z,5.50
2023-11-18T09:18:43.128Z,3.00
2023-11-18T09:21:20.724Z,2.90
2023-11-18T09:23:50.666Z,4.90
2023-11-18T09:26:18.050Z,3.30
2023-11-18T09:28:46.721Z,4.70
2023-11-18T09:31:13.869Z,3.30
2023-11-18T09:33:48.162Z,3.30
2023-11-18T09:36:15.421Z,4.60
2023-11-18T09:38:42.840Z,3.20
2023-11-18T09:41:15.109Z,2.90
2023-11-18T09:43:46.765Z,3.60
2023-11-18T09:46:17.148Z,3.20
2023-11-18T09:49:01.340Z,4.80
2023-11-18T09:51:31.314Z,4.10
2023-11-18T09:54:02.643Z,3.10
2023-11-18T09:56:45.146Z,5.10
2023-11-18T09:59:29.770Z,2.80
2023-11-18T10:01:59.194Z,4.10
2023-11-18T10:04:29.330Z,6.20
2023-11-18T10:06:57.948Z,3.10
2023-11-18T10:09:41.279Z,2.60
2023-11-18T10:12:13.887Z,5.40
2023-11-18T10:14:45.141Z,3.70
2023-11-18T10:17:15.990Z,8.90
2023-11-18T10:19:54.000Z,6.40
2023-11-18T10:22:27.564Z,5.00
2023-11-18T10:24:58.906Z,3.70
2023-11-18T10:27:27.837Z,5.30
2023-11-18T10:29:58.865Z,7.70
2023-11-18T10:32:29.251Z,4.40
2023-11-18T10:34:59.891Z,4.30
2023-11-18T10:37:27.564Z,5.00
2023-11-18T10:39:54.385Z,4.00
2023-11-18T10:42:21.410Z,3.20
2023-11-18T10:45:04.685Z,5.60
2023-11-18T10:47:40.527Z,4.30
2023-11-18T10:50:11.350Z,6.30
2023-11-18T10:52:42.565Z,6.10
2023-11-18T10:55:13.796Z,4.50
2023-11-18T10:57:43.732Z,7.30
2023-11-18T11:00:15.030Z,10.30
2023-11-18T11:02:43.390Z,5.60
2023-11-18T11:05:20.939Z,9.10
2023-11-18T11:07:50.071Z,3.20
2023-11-18T11:10:17.764Z,4.60
2023-11-18T11:12:54.781Z,3.70
2023-11-18T11:15:29.585Z,2.50
2023-11-18T11:18:10.070Z,3.70
2023-11-18T11:20:43.867Z,4.40
2023-11-18T11:23:28.058Z,4.90
2023-11-18T11:26:10.596Z,5.90
2023-11-18T11:29:09.251Z,4.90
2023-11-18T11:31:43.910Z,4.50
2023-11-18T11:34:20.410Z,5.10
2023-11-18T11:36:53.974Z,6.90
2023-11-18T11:39:27.322Z,5.10
2023-11-18T11:41:58.546Z,4.90
2023-11-18T11:44:31.232Z,6.70
2023-11-18T11:47:01.910Z,8.20
2023-11-18T11:49:38.275Z,7.90
2023-11-18T11:52:17.595Z,4.60
2023-11-18T11:54:51.631Z,4.90
2023-11-18T11:57:18.393Z,4.50
2023-11-18T11:59:46.073Z,5.60
2023-11-18T12:02:17.539Z,6.20
2023-11-18T12:04:53.797Z,5.10
2023-11-18T12:07:28.524Z,5.00
2023-11-18T12:09:59.556Z,7.20
2023-11-18T12:12:28.222Z,5.80
2023-11-18T12:14:57.950Z,6.60
2023-11-18T12:17:29.917Z,5.80
2023-11-18T12:20:08.107Z,8.30
2023-11-18T12:23:28.486Z,8.60
2023-11-18T12:25:58.247Z,6.90
2023-11-18T12:28:35.578Z,8.10
2023-11-18T12:31:07.925Z,7.30
2023-11-18T12:34:11.232Z,7.90
2023-11-18T12:36:56.582Z,9.60
2023-11-18T12:40:14.269Z,6.00
2023-11-18T12:42:45.935Z,6.00
2023-11-18T12:45:22.088Z,8.20
2023-11-18T12:47:53.387Z,7.50
2023-11-18T12:50:26.188Z,9.90
2023-11-18T12:52:53.835Z,9.10
2023-11-18T12:55:24.398Z,10.90
2023-11-18T12:57:55.311Z,9.70
2023-11-18T13:00:28.820Z,8.60
2023-11-18T13:02:56.387Z,7.10
2023-11-18T13:05:23.814Z,6.30
2023-11-18T13:07:51.095Z,8.50
2023-11-18T13:10:18.479Z,7.50
2023-11-18T13:12:46.975Z,8.30
2023-11-18T13:15:13.886Z,7.80
2023-11-18T13:17:42.152Z,8.90
2023-11-18T13:20:19.041Z,7.00
2023-11-18T13:22:48.466Z,8.90
2023-11-18T13:25:16.168Z,9.20
2023-11-18T13:27:43.063Z,7.70
2023-11-18T13:30:14.401Z,8.70
2023-11-18T13:32:43.518Z,7.00
2023-11-18T13:35:14.717Z,8.00
2023-11-18T13:37:45.368Z,8.40
2023-11-18T13:40:15.475Z,7.70
2023-11-18T13:42:48.090Z,6.70
2023-11-18T13:45:30.643Z,7.20
2023-11-18T13:48:03.435Z,8.20
2023-11-18T13:50:30.412Z,7.00
2023-11-18T13:52:58.758Z,6.60
2023-11-18T13:55:29.222Z,5.50
2023-11-18T13:57:58.930Z,6.50
2023-11-18T14:00:31.354Z,6.70
2023-11-18T14:03:00.981Z,9.40
2023-11-18T14:05:28.164Z,9.20
2023-11-18T14:08:08.734Z,7.80
2023-11-18T14:10:39.556Z,6.00
2023-11-18T14:13:07.278Z,7.70
2023-11-18T14:15:36.626Z,7.10
2023-11-18T14:18:04.694Z,9.40
2023-11-18T14:20:32.717Z,6.00
2023-11-18T14:23:00.169Z,7.00
2023-11-18T14:25:28.618Z,9.10
2023-11-18T14:27:55.431Z,8.80
2023-11-18T14:30:25.625Z,7.50
2023-11-18T14:32:53.323Z,9.20
2023-11-18T14:35:21.880Z,7.90
2023-11-18T14:37:48.970Z,8.00
2023-11-18T14:40:17.318Z,7.40
2023-11-18T14:42:46.737Z,6.90
2023-11-18T14:45:15.910Z,6.30
2023-11-18T14:47:46.040Z,6.30
2023-11-18T14:50:19.488Z,7.30
2023-11-18T14:52:52.980Z,12.60
2023-11-18T14:55:20.081Z,34.80
2023-11-18T14:57:47.790Z,15.30
2023-11-18T15:00:22.919Z,17.60
2023-11-18T15:02:51.766Z,13.90
2023-11-18T15:05:22.298Z,9.00
2023-11-18T15:07:54.300Z,6.40
2023-11-18T15:10:24.982Z,4.80
2023-11-18T15:12:54.438Z,21.60
2023-11-18T15:15:32.577Z,18.30
2023-11-18T15:18:00.925Z,48.60
2023-11-18T15:20:28.009Z,38.60
2023-11-18T15:22:55.331Z,13.70
2023-11-18T15:25:22.321Z,9.90
2023-11-18T15:27:50.627Z,4.60
2023-11-18T15:30:18.127Z,2.40
2023-11-18T15:32:46.700Z,3.60
2023-11-18T15:35:17.582Z,2.80
2023-11-18T15:37:48.207Z,34.00
2023-11-18T15:40:20.797Z,9.00
2023-11-18T15:42:51.632Z,17.30
2023-11-18T15:45:20.598Z,29.40
2023-11-18T15:47:49.646Z,17.80
2023-11-18T15:50:18.063Z,12.90
2023-11-18T15:52:50.580Z,46.40
2023-11-18T15:55:19.130Z,23.10
2023-11-18T15:57:56.442Z,12.60
2023-11-18T16:00:27.873Z,17.30
2023-11-18T16:03:01.874Z,16.50
2023-11-18T16:05:35.460Z,18.80
2023-11-18T16:08:05.346Z,30.50
2023-11-18T16:10:33.255Z,18.30
2023-11-18T16:13:02.072Z,34.50
2023-11-18T16:15:31.476Z,29.90
2023-11-18T16:18:00.241Z,31.90
2023-11-18T16:20:33.746Z,14.10
2023-11-18T16:23:04.326Z,8.70
2023-11-18T16:25:31.968Z,40.30
2023-11-18T16:28:01.274Z,49.10
2023-11-18T16:30:31.306Z,31.90
2023-11-18T16:33:00.317Z,12.00
2023-11-18T16:35:28.295Z,8.40
2023-11-18T16:37:56.248Z,28.60
2023-11-18T16:40:25.286Z,28.40
2023-11-18T16:42:56.918Z,44.90
2023-11-18T16:45:26.027Z,18.80
2023-11-18T16:47:55.361Z,21.30
2023-11-18T16:50:24.777Z,43.50
2023-11-18T16:52:52.258Z,91.50
2023-11-18T16:55:19.837Z,36.10
2023-11-18T16:57:48.892Z,13.70
2023-11-18T17:00:17.862Z,30.30
2023-11-18T17:02:52.285Z,22.60
2023-11-18T17:05:19.378Z,10.20
2023-11-18T17:07:46.762Z,6.00
2023-11-18T17:10:13.622Z,10.50
2023-11-18T17:12:44.235Z,6.30
2023-11-18T17:15:15.021Z,4.50
2023-11-18T17:17:46.950Z,10.00
2023-11-18T17:20:16.026Z,9.10
2023-11-18T17:22:44.246Z,53.20
2023-11-18T17:25:24.682Z,63.70
2023-11-18T17:27:54.516Z,26.10
2023-11-18T17:30:22.126Z,7.20
2023-11-18T17:32:53.176Z,7.60
2023-11-18T17:35:21.595Z,5.80
2023-11-18T17:37:48.789Z,7.80
2023-11-18T17:40:16.944Z,8.50
2023-11-18T17:42:46.066Z,5.40
2023-11-18T17:45:14.147Z,10.40
2023-11-18T17:47:44.499Z,7.30
2023-11-18T17:50:15.456Z,10.90
2023-11-18T17:52:47.582Z,10.90
2023-11-18T17:55:14.611Z,7.40
2023-11-18T17:57:42.494Z,7.40
2023-11-18T18:00:13.856Z,7.10
2023-11-18T18:02:42.464Z,6.10
2023-11-18T18:05:10.004Z,6.10
2023-11-18T18:07:37.339Z,8.70
2023-11-18T18:10:04.791Z,4.30
2023-11-18T18:12:32.042Z,6.70
2023-11-18T18:14:58.820Z,4.90
2023-11-18T18:17:25.670Z,5.20
2023-11-18T18:19:52.617Z,4.90
2023-11-18T18:22:19.623Z,5.00
2023-11-18T18:24:46.357Z,5.30
2023-11-18T18:27:21.381Z,7.10
2023-11-18T18:29:48.482Z,13.20
2023-11-18T18:32:17.176Z,6.10
2023-11-18T18:34:43.951Z,6.60
2023-11-18T18:37:10.711Z,7.10
2023-11-18T18:39:37.450Z,7.00
2023-11-18T18:42:04.767Z,4.80
2023-11-18T18:44:31.837Z,6.00
2023-11-18T18:46:59.033Z,27.70
2023-11-18T18:49:25.895Z,21.50
2023-11-18T18:51:52.810Z,14.40
2023-11-18T18:54:19.703Z,8.30
2023-11-18T18:56:46.638Z,5.10
2023-11-18T18:59:13.693Z,4.40
2023-11-18T19:01:41.468Z,5.50
2023-11-18T19:04:09.455Z,9.80
2023-11-18T19:06:37.286Z,6.20
2023-11-18T19:09:05.423Z,6.70
2023-11-18T19:11:32.609Z,7.20
2023-11-18T19:13:59.992Z,8.60
2023-11-18T19:16:27.420Z,8.70
2023-11-18T19:18:56.948Z,8.40
2023-11-18T19:21:26.847Z,9.20
2023-11-18T19:23:53.750Z,9.70
2023-11-18T19:26:22.348Z,11.30
2023-11-18T19:28:49.197Z,9.20
2023-11-18T19:31:16.889Z,8.20
2023-11-18T19:33:44.126Z,14.10
2023-11-18T19:36:11.772Z,19.30
2023-11-18T19:38:39.277Z,17.60
2023-11-18T19:41:06.994Z,10.90
2023-11-18T19:43:36.950Z,7.70
2023-11-18T19:46:04.312Z,9.80
2023-11-18T19:48:32.975Z,9.30
2023-11-18T19:51:00.039Z,7.20
2023-11-18T19:53:27.492Z,7.30
2023-11-18T19:55:54.548Z,14.80
2023-11-18T19:58:23.471Z,14.40
2023-11-18T20:00:51.250Z,7.80
2023-11-18T20:03:18.239Z,6.90
2023-11-18T20:05:45.216Z,9.90
2023-11-18T20:08:12.002Z,6.00
2023-11-18T20:10:38.742Z,6.40
2023-11-18T20:13:06.266Z,8.10
2023-11-18T20:15:34.156Z,10.90
2023-11-18T20:18:01.241Z,6.50
2023-11-18T20:20:28.577Z,5.10
2023-11-18T20:22:55.993Z,5.60
2023-11-18T20:25:24.060Z,5.20
2023-11-18T20:27:51.348Z,10.00
2023-11-18T20:30:18.739Z,13.20
2023-11-18T20:32:45.776Z,10.00
2023-11-18T20:35:13.826Z,21.90
2023-11-18T20:37:40.989Z,28.40
2023-11-18T20:40:12.356Z,13.30
2023-11-18T20:42:42.077Z,12.60
2023-11-18T20:45:15.440Z,9.20
2023-11-18T20:47:42.726Z,6.20
2023-11-18T20:50:12.894Z,22.10
2023-11-18T20:52:41.361Z,15.80
2023-11-18T20:55:11.486Z,14.60
2023-11-18T20:57:39.344Z,6.30
2023-11-18T21:00:08.704Z,7.40
2023-11-18T21:02:36.307Z,6.60
2023-11-18T21:05:06.816Z,6.10
2023-11-18T21:07:34.176Z,9.30
2023-11-18T21:10:01.175Z,7.60
2023-11-18T21:12:27.957Z,7.60
2023-11-18T21:14:54.760Z,7.10
2023-11-18T21:17:26.490Z,5.20
2023-11-18T21:19:54.250Z,4.30
2023-11-18T21:22:21.038Z,5.40
2023-11-18T21:24:47.918Z,7.30
2023-11-18T21:27:15.899Z,6.30
2023-11-18T21:29:42.977Z,6.20
2023-11-18T21:32:12.245Z,10.20
2023-11-18T21:34:41.926Z,18.20
2023-11-18T21:37:12.299Z,28.20
2023-11-18T21:39:42.559Z,20.70
2023-11-18T21:42:09.883Z,6.70
2023-11-18T21:44:38.267Z,4.70
2023-11-18T21:47:05.768Z,7.90
2023-11-18T21:49:33.181Z,4.20
2023-11-18T21:52:00.727Z,16.20
2023-11-18T21:54:31.914Z,15.50
2023-11-18T21:56:59.289Z,7.00
2023-11-18T21:59:27.563Z,6.20
2023-11-18T22:01:56.199Z,3.40
2023-11-18T22:04:23.293Z,3.00
2023-11-18T22:06:52.562Z,5.60
2023-11-18T22:09:21.260Z,11.70
2023-11-18T22:11:49.315Z,4.80
2023-11-18T22:14:17.231Z,6.80
2023-11-18T22:16:44.097Z,8.40
2023-11-18T22:19:11.015Z,4.70
2023-11-18T22:21:38.313Z,5.10
2023-11-18T22:24:05.414Z,4.40
2023-11-18T22:26:32.257Z,6.80
2023-11-18T22:28:59.038Z,5.70
2023-11-18T22:31:27.252Z,6.80
2023-11-18T22:33:54.100Z,9.80
2023-11-18T22:36:20.769Z,7.00
2023-11-18T22:38:47.489Z,5.50
2023-11-18T22:41:14.412Z,6.40
2023-11-18T22:43:41.334Z,4.90
2023-11-18T22:46:12.008Z,13.40
2023-11-18T22:48:39.024Z,7.00
2023-11-18T22:51:07.076Z,5.10
2023-11-18T22:53:33.939Z,4.30
2023-11-18T22:56:00.680Z,3.80
2023-11-18T22:58:27.437Z,4.00
2023-11-18T23:00:56.296Z,6.60
2023-11-18T23:03:23.535Z,6.00
2023-11-18T23:05:53.951Z,5.50
2023-11-18T23:08:23.537Z,4.10
2023-11-18T23:10:52.442Z,4.50
2023-11-18T23:13:20.934Z,3.80
2023-11-18T23:15:48.238Z,3.90
2023-11-18T23:18:15.727Z,2.70
2023-11-18T23:20:42.697Z,3.40
2023-11-18T23:23:09.576Z,2.40
2023-11-18T23:25:36.642Z,6.10
2023-11-18T23:28:06.201Z,4.60
2023-11-18T23:30:33.213Z,3.80
2023-11-18T23:33:00.421Z,4.40
2023-11-18T23:35:29.171Z,4.50
2023-11-18T23:37:57.538Z,3.80
2023-11-18T23:40:24.675Z,3.30
2023-11-18T23:42:52.000Z,3.20
2023-11-18T23:45:19.983Z,4.80
2023-11-18T23:47:51.934Z,3.00
2023-11-18T23:50:21.180Z,3.70
2023-11-18T23:52:48.218Z,2.20
2023-11-18T23:55:15.684Z,4.50
2023-11-18T23:57:43.255Z,3.30
